createdAt,value
2023-04-14T00:00:06.558Z,90.80
2023-04-14T00:00:39.147Z,90.60
2023-04-14T00:01:11.587Z,90.39
2023-04-14T00:01:44.149Z,90.50
2023-04-14T00:02:16.791Z,90.50
2023-04-14T00:02:49.203Z,90.29
2023-04-14T00:03:21.794Z,90.39
2023-04-14T00:03:54.345Z,90.50
2023-04-14T00:04:26.814Z,90.50
2023-04-14T00:04:59.040Z,90.39
2023-04-14T00:05:31.325Z,90.19
2023-04-14T00:06:03.784Z,90.19
2023-04-14T00:06:36.241Z,90.50
2023-04-14T00:07:08.712Z,90.29
2023-04-14T00:07:41.131Z,90.19
2023-04-14T00:08:13.610Z,90.08
2023-04-14T00:08:46.109Z,89.98
2023-04-14T00:09:18.560Z,89.77
2023-04-14T00:09:51.016Z,89.98
2023-04-14T00:10:23.494Z,89.98
2023-04-14T00:10:55.979Z,89.56
2023-04-14T00:11:28.397Z,89.36
2023-04-14T00:12:00.839Z,89.77
2023-04-14T00:12:33.320Z,89.77
2023-04-14T00:13:05.780Z,89.56
2023-04-14T00:13:38.288Z,89.67
2023-04-14T00:14:10.783Z,89.56
2023-04-14T00:14:43.361Z,89.87
2023-04-14T00:15:15.774Z,89.98
2023-04-14T00:15:48.247Z,89.77
2023-04-14T00:16:20.695Z,89.67
2023-04-14T00:16:53.234Z,89.36
2023-04-14T00:17:25.695Z,89.36
2023-04-14T00:17:58.184Z,89.36
2023-04-14T00:18:30.614Z,89.46
2023-04-14T00:19:03.171Z,89.15
2023-04-14T00:19:35.567Z,89.15
2023-04-14T00:20:08.005Z,89.15
2023-04-14T00:20:40.522Z,89.04
2023-04-14T00:21:12.982Z,89.04
2023-04-14T00:21:45.446Z,88.94
2023-04-14T00:22:18.499Z,88.84
2023-04-14T00:22:50.954Z,89.15
2023-04-14T00:23:23.432Z,88.94
2023-04-14T00:23:55.892Z,88.74
2023-04-14T00:24:28.365Z,88.74
2023-04-14T00:25:00.826Z,89.04
2023-04-14T00:25:33.336Z,88.94
2023-04-14T00:26:05.800Z,88.94
2023-04-14T00:26:38.232Z,89.25
2023-04-14T00:27:10.690Z,89.36
2023-04-14T00:27:43.322Z,89.15
2023-04-14T00:28:15.750Z,89.04
2023-04-14T00:28:48.221Z,89.40
2023-04-14T00:29:20.686Z,89.61
2023-04-14T00:29:53.154Z,89.92
2023-04-14T00:30:25.617Z,90.12
2023-04-14T00:30:58.153Z,90.53
2023-04-14T00:31:30.612Z,90.33
2023-04-14T00:32:03.021Z,90.23
2023-04-14T00:32:35.535Z,90.47
2023-04-14T00:33:07.924Z,90.58
2023-04-14T00:33:40.452Z,90.78
2023-04-14T00:34:13.021Z,90.99
2023-04-14T00:34:45.428Z,90.99
2023-04-14T00:35:17.850Z,90.99
2023-04-14T00:35:50.328Z,91.09
2023-04-14T00:36:22.815Z,91.41
2023-04-14T00:36:55.226Z,91.61
2023-04-14T00:37:27.673Z,92.13
2023-04-14T00:38:00.147Z,92.07
2023-04-14T00:38:32.642Z,92.59
2023-04-14T00:39:05.103Z,92.49
2023-04-14T00:39:37.552Z,93.10
2023-04-14T00:40:10.009Z,93.10
2023-04-14T00:40:42.451Z,93.10
2023-04-14T00:41:14.907Z,93.15
2023-04-14T00:41:47.387Z,93.46
2023-04-14T00:42:19.873Z,93.56
2023-04-14T00:42:52.360Z,93.77
2023-04-14T00:43:24.758Z,93.87
2023-04-14T00:43:57.217Z,93.87
2023-04-14T00:44:29.686Z,93.87
2023-04-14T00:45:02.165Z,94.18
2023-04-14T00:45:34.625Z,94.39
2023-04-14T00:46:07.188Z,94.49
2023-04-14T00:46:39.701Z,94.49
2023-04-14T00:47:12.027Z,94.39
2023-04-14T00:47:44.557Z,94.49
2023-04-14T00:48:16.921Z,95.01
2023-04-14T00:48:49.372Z,95.12
2023-04-14T00:49:21.843Z,95.12
2023-04-14T00:49:54.356Z,95.37
2023-04-14T00:50:26.846Z,95.26
2023-04-14T00:50:59.351Z,95.06
2023-04-14T00:51:31.818Z,94.95
2023-04-14T00:52:04.275Z,94.95
2023-04-14T00:52:36.716Z,94.95
2023-04-14T00:53:09.199Z,95.10
2023-04-14T00:53:41.722Z,95.31
2023-04-14T00:54:14.137Z,95.41
2023-04-14T00:54:46.605Z,95.62
2023-04-14T00:55:19.059Z,95.62
2023-04-14T00:55:51.577Z,95.83
2023-04-14T00:56:24.047Z,95.93
2023-04-14T00:56:56.492Z,96.03
2023-04-14T00:57:28.965Z,95.93
2023-04-14T00:58:01.397Z,95.93
2023-04-14T00:58:33.903Z,95.93
2023-04-14T00:59:06.381Z,95.83
2023-04-14T00:59:38.814Z,95.83
2023-04-14T01:00:11.284Z,95.72
2023-04-14T01:00:43.781Z,95.72
2023-04-14T01:01:16.265Z,95.93
2023-04-14T01:01:48.790Z,95.72
2023-04-14T01:02:21.201Z,95.72
2023-04-14T01:02:53.697Z,95.62
2023-04-14T01:03:26.117Z,95.62
2023-04-14T01:03:58.661Z,95.51
2023-04-14T01:04:44.688Z,95.31
2023-04-14T01:05:03.490Z,95.41
2023-04-14T01:05:35.815Z,95.62
2023-04-14T01:06:08.260Z,95.62
2023-04-14T01:06:40.865Z,95.72
2023-04-14T01:07:13.258Z,95.62
2023-04-14T01:07:45.789Z,95.62
2023-04-14T01:08:18.388Z,95.51
2023-04-14T01:08:50.863Z,95.62
2023-04-14T01:09:23.382Z,95.62
2023-04-14T01:09:55.824Z,95.51
2023-04-14T01:10:28.339Z,95.62
2023-04-14T01:11:00.792Z,95.51
2023-04-14T01:11:33.224Z,95.51
2023-04-14T01:12:05.700Z,95.41
2023-04-14T01:12:38.129Z,95.31
2023-04-14T01:13:10.569Z,95.20
2023-04-14T01:13:43.056Z,95.31
2023-04-14T01:14:15.511Z,95.10
2023-04-14T01:14:47.978Z,95.00
2023-04-14T01:15:20.471Z,94.85
2023-04-14T01:15:52.963Z,94.89
2023-04-14T01:16:25.425Z,94.74
2023-04-14T01:16:57.788Z,94.74
2023-04-14T01:17:30.342Z,94.64
2023-04-14T01:18:02.788Z,94.43
2023-04-14T01:18:35.189Z,94.43
2023-04-14T01:19:07.645Z,94.43
2023-04-14T01:19:40.128Z,94.43
2023-04-14T01:20:12.632Z,94.33
2023-04-14T01:20:45.116Z,94.23
2023-04-14T01:21:17.600Z,94.12
2023-04-14T01:21:50.080Z,94.12
2023-04-14T01:22:22.523Z,94.02
2023-04-14T01:22:55.006Z,94.02
2023-04-14T01:23:27.430Z,94.02
2023-04-14T01:23:59.978Z,93.91
2023-04-14T01:24:32.458Z,93.91
2023-04-14T01:25:04.933Z,93.91
2023-04-14T01:25:37.425Z,93.96
2023-04-14T01:26:09.873Z,94.06
2023-04-14T01:26:42.335Z,94.06
2023-04-14T01:27:14.784Z,94.06
2023-04-14T01:27:47.234Z,94.17
2023-04-14T01:28:19.707Z,94.17
2023-04-14T01:28:52.250Z,94.17
2023-04-14T01:29:24.712Z,94.37
2023-04-14T01:29:57.187Z,94.68
2023-04-14T01:30:29.759Z,94.48
2023-04-14T01:31:02.244Z,94.37
2023-04-14T01:31:34.762Z,94.37
2023-04-14T01:32:07.204Z,94.27
2023-04-14T01:32:39.712Z,94.27
2023-04-14T01:33:12.124Z,94.17
2023-04-14T01:33:44.594Z,94.17
2023-04-14T01:34:17.074Z,94.06
2023-04-14T01:34:49.603Z,94.27
2023-04-14T01:35:22.047Z,94.27
2023-04-14T01:35:54.536Z,94.17
2023-04-14T01:36:26.949Z,94.27
2023-04-14T01:36:59.433Z,94.37
2023-04-14T01:37:31.919Z,94.48
2023-04-14T01:38:04.395Z,94.48
2023-04-14T01:38:36.925Z,94.63
2023-04-14T01:39:09.379Z,94.63
2023-04-14T01:39:41.848Z,94.53
2023-04-14T01:40:14.321Z,94.53
2023-04-14T01:40:46.767Z,94.53
2023-04-14T01:41:19.236Z,94.53
2023-04-14T01:41:51.684Z,94.53
2023-04-14T01:42:24.136Z,94.63
2023-04-14T01:42:56.598Z,94.63
2023-04-14T01:43:29.066Z,94.53
2023-04-14T01:44:01.527Z,94.53
2023-04-14T01:44:33.997Z,94.53
2023-04-14T01:45:06.486Z,94.53
2023-04-14T01:45:38.935Z,94.48
2023-04-14T01:46:11.475Z,94.48
2023-04-14T01:46:44.018Z,94.48
2023-04-14T01:47:16.505Z,94.37
2023-04-14T01:47:49.095Z,94.27
2023-04-14T01:48:21.503Z,94.17
2023-04-14T01:48:53.994Z,94.17
2023-04-14T01:49:26.519Z,93.96
2023-04-14T01:49:58.971Z,93.96
2023-04-14T01:50:31.485Z,93.85
2023-04-14T01:51:03.955Z,93.96
2023-04-14T01:51:36.525Z,93.85
2023-04-14T01:52:08.995Z,93.85
2023-04-14T01:52:41.510Z,93.75
2023-04-14T01:53:14.007Z,93.75
2023-04-14T01:53:46.538Z,93.65
2023-04-14T01:54:19.110Z,93.54
2023-04-14T01:54:51.577Z,93.54
2023-04-14T01:55:24.053Z,93.54
2023-04-14T01:55:56.553Z,93.33
2023-04-14T01:56:29.007Z,93.23
2023-04-14T01:57:01.502Z,93.23
2023-04-14T01:57:34.007Z,93.23
2023-04-14T01:58:06.539Z,93.13
2023-04-14T01:58:38.979Z,93.13
2023-04-14T01:59:11.516Z,93.13
2023-04-14T01:59:44.006Z,93.23
2023-04-14T02:00:16.508Z,93.23
2023-04-14T02:00:49.009Z,93.44
2023-04-14T02:01:21.569Z,93.65
2023-04-14T02:01:53.948Z,93.75
2023-04-14T02:02:26.478Z,93.96
2023-04-14T02:02:58.999Z,93.80
2023-04-14T02:03:31.492Z,93.90
2023-04-14T02:04:03.897Z,94.32
2023-04-14T02:04:36.315Z,94.53
2023-04-14T02:05:08.811Z,94.63
2023-04-14T02:05:41.284Z,94.63
2023-04-14T02:06:13.817Z,94.84
2023-04-14T02:06:46.328Z,95.04
2023-04-14T02:07:18.840Z,95.09
2023-04-14T02:07:51.338Z,95.09
2023-04-14T02:08:23.862Z,95.09
2023-04-14T02:08:56.416Z,95.09
2023-04-14T02:09:28.875Z,95.09
2023-04-14T02:10:01.401Z,95.09
2023-04-14T02:10:33.866Z,95.19
2023-04-14T02:11:06.415Z,95.09
2023-04-14T02:11:38.876Z,95.09
2023-04-14T02:12:11.377Z,95.04
2023-04-14T02:12:43.860Z,95.09
2023-04-14T02:13:16.335Z,95.09
2023-04-14T02:13:48.798Z,95.19
2023-04-14T02:14:21.298Z,95.19
2023-04-14T02:14:53.781Z,95.09
2023-04-14T02:15:26.286Z,95.09
2023-04-14T02:15:58.840Z,95.15
2023-04-14T02:16:31.379Z,95.15
2023-04-14T02:17:03.838Z,95.15
2023-04-14T02:17:36.372Z,95.15
2023-04-14T02:18:08.851Z,95.04
2023-04-14T02:18:41.300Z,94.94
2023-04-14T02:19:13.789Z,94.94
2023-04-14T02:19:46.324Z,94.84
2023-04-14T02:20:18.850Z,94.84
2023-04-14T02:20:51.368Z,94.73
2023-04-14T02:21:23.873Z,94.63
2023-04-14T02:21:56.396Z,94.63
2023-04-14T02:22:28.880Z,94.53
2023-04-14T02:23:01.380Z,94.63
2023-04-14T02:23:33.878Z,94.63
2023-04-14T02:24:06.404Z,94.53
2023-04-14T02:24:38.920Z,94.32
2023-04-14T02:25:11.456Z,94.06
2023-04-14T02:25:43.927Z,94.17
2023-04-14T02:26:16.476Z,93.96
2023-04-14T02:26:48.975Z,93.75
2023-04-14T02:27:21.481Z,93.65
2023-04-14T02:27:53.976Z,93.44
2023-04-14T02:28:26.468Z,93.44
2023-04-14T02:28:59.135Z,93.33
2023-04-14T02:29:31.430Z,93.33
2023-04-14T02:30:03.924Z,93.33
2023-04-14T02:30:36.482Z,93.23
2023-04-14T02:31:09.077Z,93.23
2023-04-14T02:31:41.448Z,93.33
2023-04-14T02:32:13.941Z,93.23
2023-04-14T02:32:46.455Z,93.23
2023-04-14T02:33:18.906Z,93.33
2023-04-14T02:33:51.400Z,93.33
2023-04-14T02:34:23.931Z,93.33
2023-04-14T02:34:56.390Z,93.33
2023-04-14T02:35:28.871Z,93.33
2023-04-14T02:36:01.370Z,93.44
2023-04-14T02:36:33.915Z,93.54
2023-04-14T02:37:06.406Z,93.54
2023-04-14T02:37:38.871Z,93.75
2023-04-14T02:38:11.365Z,93.85
2023-04-14T02:38:43.880Z,93.85
2023-04-14T02:39:16.413Z,93.75
2023-04-14T02:39:48.909Z,93.65
2023-04-14T02:40:21.418Z,93.75
2023-04-14T02:40:53.946Z,94.06
2023-04-14T02:41:26.461Z,94.17
2023-04-14T02:41:59.057Z,94.17
2023-04-14T02:42:31.534Z,94.17
2023-04-14T02:43:04.062Z,94.17
2023-04-14T02:43:36.522Z,94.06
2023-04-14T02:44:09.030Z,94.06
2023-04-14T02:44:41.516Z,94.06
2023-04-14T02:45:14.035Z,94.06
2023-04-14T02:45:46.596Z,93.96
2023-04-14T02:46:19.112Z,94.06
2023-04-14T02:46:51.568Z,94.06
2023-04-14T02:47:24.098Z,94.06
2023-04-14T02:47:56.578Z,94.17
2023-04-14T02:48:29.005Z,94.23
2023-04-14T02:49:01.736Z,94.27
2023-04-14T02:49:33.954Z,94.23
2023-04-14T02:50:06.446Z,94.23
2023-04-14T02:50:38.896Z,94.33
2023-04-14T02:51:11.376Z,94.23
2023-04-14T02:51:43.937Z,94.12
2023-04-14T02:52:16.434Z,94.23
2023-04-14T02:52:48.937Z,94.33
2023-04-14T02:53:21.442Z,94.23
2023-04-14T02:53:54.019Z,93.91
2023-04-14T02:54:26.514Z,93.71
2023-04-14T02:54:59.025Z,93.60
2023-04-14T02:55:31.506Z,93.71
2023-04-14T02:56:03.984Z,93.87
2023-04-14T02:56:36.421Z,93.66
2023-04-14T02:57:08.918Z,93.77
2023-04-14T02:57:41.391Z,93.77
2023-04-14T02:58:13.922Z,93.46
2023-04-14T02:58:46.423Z,93.35
2023-04-14T02:59:18.936Z,93.35
2023-04-14T02:59:51.459Z,92.94
2023-04-14T03:00:23.934Z,92.94
2023-04-14T03:00:56.421Z,93.15
2023-04-14T03:01:29.006Z,93.15
2023-04-14T03:02:01.645Z,93.25
2023-04-14T03:02:34.045Z,93.35
2023-04-14T03:03:06.670Z,93.25
2023-04-14T03:03:39.081Z,93.25
2023-04-14T03:04:11.574Z,93.15
2023-04-14T03:04:44.128Z,92.94
2023-04-14T03:05:16.479Z,93.25
2023-04-14T03:05:49.035Z,93.46
2023-04-14T03:06:21.521Z,93.46
2023-04-14T03:06:54.034Z,93.40
2023-04-14T03:07:26.550Z,93.40
2023-04-14T03:07:59.041Z,93.19
2023-04-14T03:08:31.529Z,93.08
2023-04-14T03:09:04.046Z,92.98
2023-04-14T03:09:36.528Z,92.98
2023-04-14T03:10:09.021Z,93.19
2023-04-14T03:10:41.506Z,93.19
2023-04-14T03:11:14.086Z,93.08
2023-04-14T03:11:46.567Z,93.19
2023-04-14T03:12:19.051Z,93.29
2023-04-14T03:12:51.537Z,93.19
2023-04-14T03:13:24.032Z,93.08
2023-04-14T03:13:56.504Z,92.98
2023-04-14T03:14:28.970Z,93.08
2023-04-14T03:15:01.466Z,92.98
2023-04-14T03:15:33.974Z,92.98
2023-04-14T03:16:06.416Z,92.88
2023-04-14T03:16:38.855Z,93.19
2023-04-14T03:17:11.387Z,93.19
2023-04-14T03:17:43.944Z,93.19
2023-04-14T03:18:16.372Z,93.29
2023-04-14T03:18:48.892Z,93.19
2023-04-14T03:19:21.347Z,93.29
2023-04-14T03:19:53.837Z,93.40
2023-04-14T03:20:26.347Z,93.19
2023-04-14T03:20:58.825Z,92.98
2023-04-14T03:21:31.328Z,92.98
2023-04-14T03:22:03.817Z,92.78
2023-04-14T03:22:36.312Z,92.57
2023-04-14T03:23:08.830Z,92.22
2023-04-14T03:23:41.338Z,91.91
2023-04-14T03:24:13.830Z,91.80
2023-04-14T03:24:46.364Z,91.70
2023-04-14T03:25:18.835Z,91.49
2023-04-14T03:25:51.323Z,91.28
2023-04-14T03:26:23.875Z,91.28
2023-04-14T03:26:56.364Z,91.18
2023-04-14T03:27:28.826Z,91.18
2023-04-14T03:28:01.371Z,91.08
2023-04-14T03:28:34.998Z,91.08
2023-04-14T03:29:06.333Z,91.08
2023-04-14T03:29:38.867Z,91.08
2023-04-14T03:30:11.411Z,91.08
2023-04-14T03:30:43.917Z,90.97
2023-04-14T03:31:16.572Z,91.08
2023-04-14T03:31:48.982Z,91.28
2023-04-14T03:32:21.544Z,91.39
2023-04-14T03:32:54.027Z,91.39
2023-04-14T03:33:26.440Z,91.49
2023-04-14T03:33:58.933Z,91.70
2023-04-14T03:34:31.427Z,91.80
2023-04-14T03:35:03.900Z,91.95
2023-04-14T03:35:36.394Z,92.16
2023-04-14T03:36:08.875Z,92.47
2023-04-14T03:36:41.338Z,92.57
2023-04-14T03:37:13.868Z,92.47
2023-04-14T03:37:46.365Z,92.57
2023-04-14T03:38:18.890Z,92.78
2023-04-14T03:38:51.416Z,92.93
2023-04-14T03:39:23.870Z,92.93
2023-04-14T03:39:56.335Z,92.93
2023-04-14T03:40:28.834Z,93.02
2023-04-14T03:41:01.341Z,93.13
2023-04-14T03:41:33.812Z,93.02
2023-04-14T03:42:06.334Z,93.13
2023-04-14T03:42:38.853Z,93.23
2023-04-14T03:43:11.338Z,93.65
2023-04-14T03:43:43.837Z,93.75
2023-04-14T03:44:16.332Z,93.90
2023-04-14T03:44:48.850Z,94.01
2023-04-14T03:45:21.361Z,94.01
2023-04-14T03:45:53.904Z,94.01
2023-04-14T03:46:26.483Z,94.01
2023-04-14T03:46:58.946Z,94.11
2023-04-14T03:47:31.834Z,94.11
2023-04-14T03:48:03.928Z,94.11
2023-04-14T03:48:36.387Z,94.11
2023-04-14T03:49:08.884Z,94.11
2023-04-14T03:49:41.355Z,94.21
2023-04-14T03:50:13.901Z,94.21
2023-04-14T03:50:46.364Z,94.21
2023-04-14T03:51:18.912Z,94.21
2023-04-14T03:51:51.417Z,94.53
2023-04-14T03:52:23.941Z,94.53
2023-04-14T03:52:56.456Z,94.73
2023-04-14T03:53:28.941Z,94.73
2023-04-14T03:54:01.440Z,94.67
2023-04-14T03:54:33.975Z,94.78
2023-04-14T03:55:06.500Z,94.88
2023-04-14T03:55:38.916Z,94.98
2023-04-14T03:56:11.384Z,95.09
2023-04-14T03:56:43.924Z,95.29
2023-04-14T03:57:16.391Z,95.40
2023-04-14T03:57:48.909Z,95.40
2023-04-14T03:58:21.399Z,95.50
2023-04-14T03:58:53.909Z,95.50
2023-04-14T03:59:26.383Z,95.61
2023-04-14T03:59:58.888Z,95.61
2023-04-14T04:00:31.385Z,95.71
2023-04-14T04:01:03.865Z,95.92
2023-04-14T04:01:36.352Z,96.02
2023-04-14T04:02:08.895Z,96.02
2023-04-14T04:02:41.359Z,96.02
2023-04-14T04:03:13.958Z,95.92
2023-04-14T04:03:46.568Z,95.81
2023-04-14T04:04:18.903Z,95.81
2023-04-14T04:04:51.246Z,95.71
2023-04-14T04:05:23.667Z,95.61
2023-04-14T04:05:56.157Z,95.50
2023-04-14T04:06:28.632Z,95.50
2023-04-14T04:07:01.113Z,95.50
2023-04-14T04:07:33.620Z,95.50
2023-04-14T04:08:06.103Z,95.61
2023-04-14T04:08:38.589Z,95.50
2023-04-14T04:09:11.835Z,95.50
2023-04-14T04:09:44.320Z,95.50
2023-04-14T04:10:16.849Z,95.54
2023-04-14T04:10:49.312Z,95.54
2023-04-14T04:11:21.859Z,95.65
2023-04-14T04:11:54.269Z,95.75
2023-04-14T04:12:26.752Z,95.86
2023-04-14T04:12:59.224Z,95.96
2023-04-14T04:13:31.712Z,96.06
2023-04-14T04:14:04.188Z,95.96
2023-04-14T04:14:38.609Z,96.06
2023-04-14T04:15:09.153Z,96.06
2023-04-14T04:15:41.614Z,96.06
2023-04-14T04:16:14.118Z,96.17
2023-04-14T04:16:46.646Z,96.17
2023-04-14T04:17:19.115Z,96.06
2023-04-14T04:17:51.607Z,96.06
2023-04-14T04:18:24.031Z,96.06
2023-04-14T04:18:56.538Z,95.96
2023-04-14T04:19:29.096Z,95.92
2023-04-14T04:20:01.591Z,95.81
2023-04-14T04:20:34.079Z,95.81
2023-04-14T04:21:06.559Z,95.81
2023-04-14T04:21:39.026Z,95.71
2023-04-14T04:22:11.505Z,95.71
2023-04-14T04:22:43.964Z,95.71
2023-04-14T04:23:16.498Z,95.71
2023-04-14T04:23:49.034Z,95.71
2023-04-14T04:24:21.548Z,95.75
2023-04-14T04:24:54.041Z,95.71
2023-04-14T04:25:26.535Z,95.75
2023-04-14T04:25:58.979Z,95.75
2023-04-14T04:26:31.505Z,95.71
2023-04-14T04:27:06.419Z,95.71
2023-04-14T04:27:36.503Z,95.81
2023-04-14T04:28:08.993Z,95.71
2023-04-14T04:28:41.497Z,95.71
2023-04-14T04:29:14.030Z,95.71
2023-04-14T04:29:46.534Z,95.92
2023-04-14T04:30:19.069Z,95.86
2023-04-14T04:30:51.549Z,95.86
2023-04-14T04:31:24.112Z,95.86
2023-04-14T04:31:56.525Z,95.86
2023-04-14T04:32:29.072Z,95.81
2023-04-14T04:33:01.561Z,95.86
2023-04-14T04:33:33.989Z,95.86
2023-04-14T04:34:06.458Z,95.96
2023-04-14T04:34:38.942Z,95.96
2023-04-14T04:35:11.431Z,95.86
2023-04-14T04:35:43.909Z,95.96
2023-04-14T04:36:16.380Z,96.17
2023-04-14T04:36:48.886Z,96.27
2023-04-14T04:37:21.390Z,96.37
2023-04-14T04:37:53.889Z,96.48
2023-04-14T04:38:26.384Z,96.48
2023-04-14T04:38:59.011Z,96.79
2023-04-14T04:39:31.330Z,96.79
2023-04-14T04:40:03.815Z,96.79
2023-04-14T04:40:36.298Z,96.69
2023-04-14T04:41:08.770Z,96.79
2023-04-14T04:41:41.228Z,96.83
2023-04-14T04:42:13.749Z,96.94
2023-04-14T04:42:46.259Z,97.04
2023-04-14T04:43:18.710Z,97.04
2023-04-14T04:43:51.189Z,97.14
2023-04-14T04:44:23.703Z,97.14
2023-04-14T04:44:56.172Z,97.04
2023-04-14T04:45:28.653Z,97.04
2023-04-14T04:46:01.144Z,97.14
2023-04-14T04:46:33.898Z,97.35
2023-04-14T04:47:06.260Z,97.56
2023-04-14T04:47:38.829Z,97.77
2023-04-14T04:48:11.302Z,97.88
2023-04-14T04:48:43.721Z,98.03
2023-04-14T04:49:16.195Z,98.03
2023-04-14T04:49:48.675Z,98.03
2023-04-14T04:50:21.225Z,97.93
2023-04-14T04:50:53.672Z,97.83
2023-04-14T04:51:26.196Z,97.52
2023-04-14T04:51:58.709Z,97.31
2023-04-14T04:52:31.175Z,97.16
2023-04-14T04:53:03.679Z,97.06
2023-04-14T04:53:36.206Z,96.85
2023-04-14T04:54:08.702Z,96.75
2023-04-14T04:54:41.206Z,96.64
2023-04-14T04:55:13.699Z,96.54
2023-04-14T04:55:46.184Z,96.44
2023-04-14T04:56:18.682Z,96.33
2023-04-14T04:56:51.139Z,96.12
2023-04-14T04:57:23.654Z,96.02
2023-04-14T04:57:56.123Z,95.92
2023-04-14T04:58:28.619Z,95.77
2023-04-14T04:59:01.319Z,95.81
2023-04-14T04:59:34.099Z,95.77
2023-04-14T05:00:06.092Z,95.81
2023-04-14T05:00:38.576Z,95.81
2023-04-14T05:01:11.089Z,95.92
2023-04-14T05:01:43.608Z,95.81
2023-04-14T05:02:15.982Z,95.92
2023-04-14T05:02:48.470Z,96.02
2023-04-14T05:03:20.966Z,96.02
2023-04-14T05:03:53.423Z,95.92
2023-04-14T05:04:26.010Z,96.02
2023-04-14T05:04:58.360Z,96.02
2023-04-14T05:05:30.824Z,95.92
2023-04-14T05:06:03.316Z,95.92
2023-04-14T05:06:35.828Z,95.92
2023-04-14T05:07:08.279Z,95.92
2023-04-14T05:07:40.779Z,95.81
2023-04-14T05:08:14.559Z,95.81
2023-04-14T05:08:45.766Z,95.92
2023-04-14T05:09:18.257Z,96.02
2023-04-14T05:09:50.791Z,96.02
2023-04-14T05:10:23.287Z,95.92
2023-04-14T05:10:55.772Z,95.92
2023-04-14T05:11:28.258Z,96.02
2023-04-14T05:12:00.747Z,95.92
2023-04-14T05:12:33.221Z,95.92
2023-04-14T05:13:05.734Z,96.02
2023-04-14T05:13:38.263Z,95.77
2023-04-14T05:14:10.757Z,95.77
2023-04-14T05:14:43.310Z,95.67
2023-04-14T05:15:15.810Z,95.67
2023-04-14T05:15:48.346Z,95.77
2023-04-14T05:16:20.805Z,95.98
2023-04-14T05:16:53.248Z,96.08
2023-04-14T05:17:25.767Z,95.98
2023-04-14T05:17:58.253Z,96.19
2023-04-14T05:18:30.693Z,96.29
2023-04-14T05:19:03.487Z,96.29
2023-04-14T05:19:35.631Z,96.39
2023-04-14T05:20:08.153Z,96.29
2023-04-14T05:20:40.654Z,96.29
2023-04-14T05:21:13.124Z,96.29
2023-04-14T05:21:45.566Z,96.50
2023-04-14T05:22:18.275Z,96.60
2023-04-14T05:22:50.767Z,96.70
2023-04-14T05:23:23.270Z,96.91
2023-04-14T05:23:55.777Z,97.02
2023-04-14T05:24:28.263Z,96.91
2023-04-14T05:25:00.734Z,96.91
2023-04-14T05:25:33.211Z,96.81
2023-04-14T05:26:26.954Z,96.81
2023-04-14T05:26:57.739Z,97.02
2023-04-14T05:27:13.880Z,96.91
2023-04-14T05:27:43.156Z,96.81
2023-04-14T05:28:15.648Z,96.95
2023-04-14T05:28:48.120Z,96.95
2023-04-14T05:29:20.637Z,96.95
2023-04-14T05:29:53.136Z,96.95
2023-04-14T05:30:25.636Z,96.95
2023-04-14T05:30:59.974Z,96.91
2023-04-14T05:31:30.726Z,97.02
2023-04-14T05:32:03.139Z,97.02
2023-04-14T05:32:35.622Z,97.02
2023-04-14T05:33:08.161Z,97.12
2023-04-14T05:33:40.589Z,97.12
2023-04-14T05:34:13.074Z,97.12
2023-04-14T05:34:45.534Z,97.12
2023-04-14T05:35:18.005Z,97.02
2023-04-14T05:35:50.487Z,97.12
2023-04-14T05:36:22.958Z,97.12
2023-04-14T05:36:55.457Z,97.22
2023-04-14T05:37:27.946Z,97.33
2023-04-14T05:38:00.429Z,97.33
2023-04-14T05:38:32.953Z,97.38
2023-04-14T05:39:05.444Z,97.49
2023-04-14T05:39:37.973Z,97.28
2023-04-14T05:40:10.453Z,97.17
2023-04-14T05:40:42.938Z,97.17
2023-04-14T05:41:15.418Z,97.28
2023-04-14T05:41:47.922Z,97.28
2023-04-14T05:42:20.408Z,97.07
2023-04-14T05:42:53.890Z,96.97
2023-04-14T05:43:25.375Z,96.72
2023-04-14T05:43:57.897Z,96.51
2023-04-14T05:44:37.394Z,96.51
2023-04-14T05:45:09.866Z,96.41
2023-04-14T05:45:42.341Z,96.61
2023-04-14T05:46:14.838Z,96.51
2023-04-14T05:46:47.304Z,96.36
2023-04-14T05:47:19.794Z,96.57
2023-04-14T05:47:52.306Z,96.67
2023-04-14T05:48:24.726Z,96.57
2023-04-14T05:48:57.245Z,96.47
2023-04-14T05:49:29.719Z,96.26
2023-04-14T05:50:02.250Z,95.95
2023-04-14T05:50:34.726Z,95.59
2023-04-14T05:51:07.213Z,95.59
2023-04-14T05:51:39.684Z,95.70
2023-04-14T05:52:12.169Z,95.59
2023-04-14T05:52:44.660Z,95.59
2023-04-14T05:53:17.128Z,95.44
2023-04-14T05:53:49.640Z,95.14
2023-04-14T05:54:22.116Z,94.93
2023-04-14T05:54:54.595Z,94.82
2023-04-14T05:55:27.070Z,94.41
2023-04-14T05:55:59.554Z,94.31
2023-04-14T05:56:32.010Z,94.20
2023-04-14T05:57:04.532Z,94.41
2023-04-14T05:57:37.023Z,94.16
2023-04-14T05:58:09.548Z,94.06
2023-04-14T05:58:42.068Z,93.54
2023-04-14T05:59:14.540Z,93.23
2023-04-14T05:59:47.026Z,92.61
2023-04-14T06:00:19.507Z,92.09
2023-04-14T06:00:51.975Z,91.53
2023-04-14T06:01:24.466Z,91.53
2023-04-14T06:01:57.054Z,92.05
2023-04-14T06:02:29.629Z,91.84
2023-04-14T06:03:02.162Z,91.01
2023-04-14T06:03:35.508Z,90.77
2023-04-14T06:04:07.317Z,90.66
2023-04-14T06:04:39.538Z,90.66
2023-04-14T06:05:12.034Z,90.25
2023-04-14T06:05:44.368Z,89.94
2023-04-14T06:06:16.830Z,90.04
2023-04-14T06:06:49.354Z,89.79
2023-04-14T06:07:21.809Z,90.20
2023-04-14T06:07:54.329Z,90.62
2023-04-14T06:08:26.773Z,90.41
2023-04-14T06:08:59.523Z,89.95
2023-04-14T06:09:31.758Z,89.95
2023-04-14T06:10:04.239Z,90.16
2023-04-14T06:10:36.728Z,89.65
2023-04-14T06:11:09.202Z,88.98
2023-04-14T06:11:41.652Z,88.57
2023-04-14T06:12:14.153Z,88.74
2023-04-14T06:12:46.635Z,88.95
2023-04-14T06:13:19.123Z,88.59
2023-04-14T06:13:51.599Z,87.73
2023-04-14T06:14:24.099Z,87.85
2023-04-14T06:14:56.592Z,88.02
2023-04-14T06:15:29.056Z,88.04
2023-04-14T06:16:01.579Z,87.85
2023-04-14T06:16:34.211Z,87.77
2023-04-14T06:17:06.517Z,87.32
2023-04-14T06:17:39.061Z,85.39
2023-04-14T06:18:11.528Z,84.23
2023-04-14T06:18:44.014Z,84.36
2023-04-14T06:19:16.501Z,80.16
2023-04-14T06:19:49.007Z,77.76
2023-04-14T06:20:21.471Z,76.09
2023-04-14T06:20:53.952Z,75.48
2023-04-14T06:21:26.425Z,75.34
2023-04-14T06:21:58.878Z,73.91
2023-04-14T06:22:31.351Z,73.36
2023-04-14T06:23:03.816Z,72.75
2023-04-14T06:23:36.298Z,72.72
2023-04-14T06:24:08.762Z,71.39
2023-04-14T06:24:41.220Z,71.19
2023-04-14T06:25:13.707Z,71.70
2023-04-14T06:25:46.171Z,74.01
2023-04-14T06:26:18.658Z,72.75
2023-04-14T06:26:51.130Z,72.04
2023-04-14T06:27:23.610Z,74.15
2023-04-14T06:27:56.137Z,74.21
2023-04-14T06:28:28.582Z,75.71
2023-04-14T06:29:01.378Z,75.16
2023-04-14T06:29:33.571Z,74.72
2023-04-14T06:30:06.034Z,74.48
2023-04-14T06:30:38.487Z,72.92
2023-04-14T06:31:10.938Z,72.99
2023-04-14T06:31:43.438Z,70.42
2023-04-14T06:32:16.090Z,66.89
2023-04-14T06:32:48.421Z,68.62
2023-04-14T06:33:20.868Z,66.38
2023-04-14T06:33:53.347Z,67.60
2023-04-14T06:34:25.854Z,68.72
2023-04-14T06:34:58.319Z,66.18
2023-04-14T06:35:33.818Z,65.30
2023-04-14T06:36:03.294Z,65.30
2023-04-14T06:36:35.751Z,64.72
2023-04-14T06:37:08.246Z,66.04
2023-04-14T06:37:40.699Z,67.77
2023-04-14T06:38:13.212Z,67.57
2023-04-14T06:38:45.713Z,67.66
2023-04-14T06:39:18.183Z,71.30
2023-04-14T06:39:50.642Z,74.07
2023-04-14T06:40:23.135Z,75.36
2023-04-14T06:40:55.624Z,71.88
2023-04-14T06:41:28.094Z,71.33
2023-04-14T06:42:00.571Z,73.33
2023-04-14T06:42:33.045Z,73.80
2023-04-14T06:43:05.550Z,72.55
2023-04-14T06:43:38.028Z,73.22
2023-04-14T06:44:10.530Z,73.56
2023-04-14T06:44:43.051Z,69.89
2023-04-14T06:45:15.534Z,63.54
2023-04-14T06:45:48.040Z,63.34
2023-04-14T06:46:20.592Z,68.47
2023-04-14T06:46:52.967Z,69.34
2023-04-14T06:47:25.529Z,64.79
2023-04-14T06:47:58.049Z,64.29
2023-04-14T06:48:30.494Z,62.95
2023-04-14T06:49:03.217Z,63.45
2023-04-14T06:49:35.469Z,65.44
2023-04-14T06:50:07.974Z,63.79
2023-04-14T06:50:41.507Z,62.65
2023-04-14T06:51:12.951Z,63.70
2023-04-14T06:51:45.449Z,62.09
2023-04-14T06:52:17.950Z,63.17
2023-04-14T06:52:50.423Z,55.29
2023-04-14T06:53:22.910Z,54.81
2023-04-14T06:53:55.390Z,55.41
2023-04-14T06:54:27.908Z,57.53
2023-04-14T06:55:00.373Z,57.93
2023-04-14T06:55:32.803Z,58.74
2023-04-14T06:56:05.269Z,58.23
2023-04-14T06:56:37.760Z,58.11
2023-04-14T06:57:10.271Z,63.31
2023-04-14T06:57:42.773Z,63.99
2023-04-14T06:58:15.260Z,62.35